Time;durP1;ratioP1;P1;durP2;ratioP2;P2;SDS_P1;SDS_P2;PMS_P1;PMS_P2;Temp;Humidity;BMP_temperature;BMP_pressure;BME280_temperature;BME280_humidity;BME280_pressure;Samples;Min_cycle;Max_cycle;Signal;HPM_P1;HPM_P2
2023/08/20 00:00:11;;;;;;;8.60;3.45;;;;;;;20.04;82.67;101963.53;5037624;28;20021;-60
2023/08/20 00:02:38;;;;;;;9.20;3.28;;;;;;;19.95;83.13;101958.25;5055241;28;20029;-60
2023/08/20 00:05:04;;;;;;;7.95;3.20;;;;;;;19.93;83.18;101965.44;5055009;28;20025;-60
2023/08/20 00:07:31;;;;;;;9.85;3.13;;;;;;;19.84;83.47;101974.47;5054515;28;20021;-60
2023/08/20 00:09:56;;;;;;;6.95;3.00;;;;;;;19.82;83.80;101973.59;5055271;28;20482;-60
2023/08/20 00:12:22;;;;;;;7.80;3.25;;;;;;;19.89;83.76;101964.59;5055213;28;20029;-60
2023/08/20 00:15:06;;;;;;;8.93;3.40;;;;;;;19.88;83.72;101961.94;5054992;28;20086;-59
2023/08/20 00:17:36;;;;;;;9.77;3.30;;;;;;;19.90;83.59;101955.63;5055361;28;20033;-59
2023/08/20 00:20:08;;;;;;;8.52;3.10;;;;;;;19.92;83.87;101958.31;5054962;28;20036;-60
2023/08/20 00:22:34;;;;;;;8.57;3.28;;;;;;;19.93;83.45;101950.25;5054717;28;20051;-60
2023/08/20 00:25:00;;;;;;;7.75;3.13;;;;;;;19.97;83.14;101954.66;5054765;28;20558;-59
2023/08/20 00:27:26;;;;;;;8.40;3.28;;;;;;;19.84;83.38;101961.06;5055069;28;20029;-59
2023/08/20 00:29:51;;;;;;;6.43;2.97;;;;;;;19.88;83.64;101957.44;5054782;28;20460;-61
2023/08/20 00:32:16;;;;;;;10.63;3.28;;;;;;;19.89;83.36;101956.53;5054880;28;20021;-61
2023/08/20 00:34:42;;;;;;;7.55;3.05;;;;;;;19.86;83.04;101958.34;5053280;28;20509;-60
2023/08/20 00:37:07;;;;;;;12.90;3.10;;;;;;;19.89;83.01;101961.03;5054707;28;20033;-60
2023/08/20 00:39:33;;;;;;;7.50;3.10;;;;;;;19.86;83.32;101974.44;5036657;28;20029;-60
2023/08/20 00:41:58;;;;;;;7.32;3.20;;;;;;;19.73;83.36;101971.00;5054613;28;20100;-60
2023/08/20 00:44:24;;;;;;;10.48;3.50;;;;;;;19.61;83.45;101981.81;5054418;28;20037;-60
2023/08/20 00:46:50;;;;;;;9.13;3.58;;;;;;;19.46;83.83;101983.72;5054767;28;20032;-61
2023/08/20 00:49:16;;;;;;;7.03;3.03;;;;;;;19.33;84.18;101991.84;5054414;28;20033;-60
2023/08/20 00:51:42;;;;;;;8.38;3.20;;;;;;;19.18;85.26;101998.19;5054335;28;20476;-59
2023/08/20 00:54:08;;;;;;;6.43;3.30;;;;;;;19.01;85.96;101995.63;5054180;28;20111;-59
2023/08/20 00:56:34;;;;;;;8.95;3.50;;;;;;;18.91;86.70;101997.47;5054245;28;20064;-60
2023/08/20 00:58:59;;;;;;;11.30;3.60;;;;;;;18.89;87.20;101990.34;5054256;28;20391;-60
2023/08/20 01:01:25;;;;;;;8.10;3.50;;;;;;;18.89;87.60;102010.00;5052855;28;20116;-59
2023/08/20 01:03:52;;;;;;;7.78;3.53;;;;;;;18.83;87.99;102014.47;5054212;28;20032;-60
2023/08/20 01:06:40;;;;;;;9.27;3.50;;;;;;;18.83;88.16;102020.72;5053966;28;20021;-60
2023/08/20 01:09:14;;;;;;;10.48;3.65;;;;;;;18.85;88.38;102023.41;5054264;28;20029;-60
2023/08/20 01:11:46;;;;;;;7.55;3.40;;;;;;;18.89;88.51;102023.38;5053996;28;20178;-61
2023/08/20 01:14:16;;;;;;;8.48;3.47;;;;;;;18.95;88.35;102030.50;5053975;28;20486;-60
2023/08/20 01:16:42;;;;;;;10.52;3.50;;;;;;;19.04;88.88;102034.91;5054174;28;20025;-59
2023/08/20 01:19:12;;;;;;;11.23;3.90;;;;;;;19.08;88.72;102031.31;5052896;28;20121;-61
2023/08/20 01:21:39;;;;;;;10.20;3.58;;;;;;;19.18;88.39;102044.63;5053711;28;20041;-60
2023/08/20 01:24:05;;;;;;;8.77;3.70;;;;;;;19.26;88.52;102040.13;5053700;28;20048;-60
2023/08/20 01:26:49;;;;;;;8.25;3.58;;;;;;;19.39;88.51;102040.94;5053748;28;20479;-59
2023/08/20 01:29:14;;;;;;;9.77;3.60;;;;;;;19.48;88.13;102027.47;5053968;28;20090;-60
2023/08/20 01:31:40;;;;;;;8.55;3.63;;;;;;;19.58;87.43;102036.34;5053544;28;20478;-59
2023/08/20 01:34:06;;;;;;;10.45;3.40;;;;;;;19.60;87.59;102028.28;5053379;28;20033;-59
2023/08/20 01:36:31;;;;;;;8.60;3.85;;;;;;;19.60;87.18;102030.97;5053403;28;20025;-59
2023/08/20 01:38:56;;;;;;;6.85;3.65;;;;;;;19.57;87.50;102025.63;5053527;28;20037;-59
2023/08/20 01:41:22;;;;;;;12.65;3.53;;;;;;;19.60;87.34;102028.28;5053564;28;20051;-59
2023/08/20 01:43:47;;;;;;;10.32;3.50;;;;;;;19.51;88.28;102023.88;5053468;28;20021;-60
2023/08/20 01:46:13;;;;;;;8.02;3.38;;;;;;;19.56;88.34;102024.72;5053456;28;20108;-58
2023/08/20 01:48:38;;;;;;;9.32;3.63;;;;;;;19.61;87.74;102030.97;5053761;28;20120;-60
2023/08/20 01:51:03;;;;;;;8.20;3.80;;;;;;;19.66;87.25;102034.53;5053337;28;20025;-58
2023/08/20 01:53:29;;;;;;;11.43;4.15;;;;;;;19.70;86.80;102033.63;5053249;28;20364;-59
2023/08/20 01:55:54;;;;;;;11.68;3.63;;;;;;;19.73;87.03;102033.56;5053368;28;20112;-59
2023/08/20 01:58:20;;;;;;;8.60;3.50;;;;;;;19.75;86.73;102031.78;5053074;28;20029;-59
2023/08/20 02:00:46;;;;;;;10.65;3.70;;;;;;;19.74;87.20;102037.13;5013653;28;20038;-59
2023/08/20 02:03:11;;;;;;;10.85;3.90;;;;;;;19.66;87.80;102044.38;5013751;28;20030;-60
2023/08/20 02:05:37;;;;;;;12.25;3.78;;;;;;;19.56;88.43;102054.22;5013186;28;20621;-59
2023/08/20 02:08:03;;;;;;;11.95;3.55;;;;;;;19.47;88.68;102048.94;5013693;28;20352;-60
2023/08/20 02:10:29;;;;;;;8.80;3.55;;;;;;;19.49;88.97;102056.06;5013405;28;20057;-60
2023/08/20 02:12:54;;;;;;;11.13;3.70;;;;;;;19.49;89.13;102055.19;5013456;28;20472;-59
2023/08/20 02:15:20;;;;;;;9.95;3.83;;;;;;;19.51;88.88;102050.69;5013300;28;20155;-59
2023/08/20 02:17:45;;;;;;;7.43;3.58;;;;;;;19.55;88.58;102062.28;5013358;28;20387;-60
2023/08/20 02:20:11;;;;;;;13.00;4.00;;;;;;;19.54;88.73;102066.78;5013644;28;20436;-59
2023/08/20 02:22:36;;;;;;;12.30;3.88;;;;;;;19.55;89.62;102067.66;5049624;28;20049;-60
2023/08/20 02:25:02;;;;;;;9.25;3.80;;;;;;;19.47;89.72;102068.59;5052863;28;20033;-59
2023/08/20 02:27:27;;;;;;;13.35;3.83;;;;;;;19.58;89.62;102055.13;5035026;28;20083;-59
2023/08/20 02:29:53;;;;;;;9.02;3.70;;;;;;;19.56;89.67;102056.91;5051976;28;20455;-60
2023/08/20 02:32:18;;;;;;;11.77;3.65;;;;;;;19.64;90.00;102059.56;5057060;28;20063;-60
2023/08/20 02:34:44;;;;;;;12.10;3.88;;;;;;;19.73;89.22;102062.19;5056706;28;20467;-59
2023/08/20 02:37:09;;;;;;;11.00;3.88;;;;;;;19.77;88.65;102059.47;5056819;28;20033;-59
2023/08/20 02:39:35;;;;;;;10.60;4.00;;;;;;;19.74;87.91;102056.81;5056839;28;20147;-61
2023/08/20 02:42:00;;;;;;;9.60;3.90;;;;;;;19.73;88.20;102052.34;5057229;28;20025;-60
2023/08/20 02:44:26;;;;;;;10.52;3.72;;;;;;;19.79;88.44;102056.78;5056965;28;20090;-60
2023/08/20 02:46:51;;;;;;;11.23;3.50;;;;;;;19.71;88.39;102050.59;5056687;28;20029;-60
2023/08/20 02:49:16;;;;;;;9.07;3.50;;;;;;;19.70;88.65;102038.97;5056716;28;20466;-60
2023/08/20 02:51:43;;;;;;;9.48;3.47;;;;;;;19.65;88.79;102034.53;5056687;28;20032;-59
2023/08/20 02:54:08;;;;;;;9.65;3.55;;;;;;;19.55;89.00;102043.53;5056495;28;20032;-59
2023/08/20 02:56:34;;;;;;;11.27;3.60;;;;;;;19.49;89.14;102048.03;5056741;28;20025;-61
2023/08/20 02:58:59;;;;;;;12.77;4.35;;;;;;;19.47;89.18;102047.13;5056525;28;20056;-59
2023/08/20 03:01:26;;;;;;;6.97;3.47;;;;;;;19.43;89.15;102039.13;5056111;28;20035;-59
2023/08/20 03:03:51;;;;;;;10.60;3.53;;;;;;;19.39;89.23;102042.72;5056461;28;20025;-60
2023/08/20 03:06:17;;;;;;;7.57;3.72;;;;;;;19.38;89.62;102043.63;5056270;28;20034;-59
2023/08/20 03:08:42;;;;;;;13.35;3.70;;;;;;;19.37;89.49;102045.44;5056526;28;20025;-60
2023/08/20 03:11:08;;;;;;;8.25;3.88;;;;;;;19.36;89.39;102040.97;5056345;28;20478;-60
2023/08/20 03:13:33;;;;;;;9.75;3.80;;;;;;;19.36;89.33;102040.97;5056438;28;20105;-60
2023/08/20 03:15:59;;;;;;;9.77;3.80;;;;;;;19.33;89.36;102032.94;5056243;28;20541;-59
2023/08/20 03:18:24;;;;;;;9.63;3.75;;;;;;;19.29;89.28;102039.22;5056218;28;20029;-59
2023/08/20 03:20:49;;;;;;;8.70;3.55;;;;;;;19.22;89.64;102038.34;5055999;28;20048;-60
2023/08/20 03:23:15;;;;;;;11.23;3.60;;;;;;;19.17;89.04;102036.63;5056385;28;20029;-59
2023/08/20 03:25:40;;;;;;;7.70;3.28;;;;;;;19.17;89.09;102040.19;5056112;28;20029;-59
2023/08/20 03:28:06;;;;;;;10.68;3.55;;;;;;;19.12;89.52;102036.66;5055958;28;20391;-60
2023/08/20 03:30:31;;;;;;;8.55;4.03;;;;;;;19.10;89.32;102035.78;5056197;28;20021;-58
2023/08/20 03:32:57;;;;;;;8.07;3.50;;;;;;;19.14;89.22;102040.22;5055951;28;20029;-60
2023/08/20 03:35:22;;;;;;;9.05;3.80;;;;;;;19.10;89.24;102034.84;5055610;28;20099;-60
2023/08/20 03:37:48;;;;;;;8.75;3.88;;;;;;;19.01;89.37;102035.81;5055934;28;20021;-60
2023/08/20 03:40:14;;;;;;;8.90;3.78;;;;;;;18.95;89.53;102036.72;5055652;28;20112;-60
2023/08/20 03:42:39;;;;;;;10.57;3.67;;;;;;;18.93;90.08;102034.97;5054534;28;20501;-60
2023/08/20 03:45:05;;;;;;;7.60;3.60;;;;;;;18.97;89.86;102034.03;5055746;28;20068;-59
2023/08/20 03:47:31;;;;;;;9.82;3.80;;;;;;;18.99;89.17;102034.94;5055820;28;20154;-60
2023/08/20 03:49:56;;;;;;;6.75;3.53;;;;;;;18.98;88.78;102038.53;5055630;28;20108;-60
2023/08/20 03:52:21;;;;;;;7.90;3.80;;;;;;;18.95;89.12;102035.84;5055557;28;20047;-60
2023/08/20 03:54:47;;;;;;;7.50;3.85;;;;;;;18.89;89.56;102034.09;5055399;28;20106;-61
2023/08/20 03:57:12;;;;;;;10.60;4.88;;;;;;;18.82;89.16;102044.84;5055461;28;20051;-60
2023/08/20 03:59:38;;;;;;;10.27;4.10;;;;;;;18.76;89.35;102049.31;5054310;28;20057;-59
2023/08/20 04:02:03;;;;;;;13.82;4.38;;;;;;;18.68;89.74;102056.47;5055354;28;20032;-59
2023/08/20 04:04:29;;;;;;;8.48;4.55;;;;;;;18.61;89.96;102052.00;5055312;28;20060;-59
2023/08/20 04:06:54;;;;;;;7.97;4.13;;;;;;;18.61;89.95;102060.03;5055069;28;20033;-60
2023/08/20 04:09:20;;;;;;;8.02;3.90;;;;;;;18.50;90.22;102054.75;5055387;28;20025;-60
2023/08/20 04:11:45;;;;;;;8.38;4.05;;;;;;;18.41;90.15;102065.44;5055310;28;20056;-59
2023/08/20 04:14:10;;;;;;;8.75;3.60;;;;;;;18.41;90.03;102067.22;5053832;28;20033;-59
2023/08/20 04:16:36;;;;;;;9.65;4.00;;;;;;;18.37;90.23;102068.13;5055137;28;20108;-61
2023/08/20 04:19:01;;;;;;;9.35;3.63;;;;;;;18.34;90.67;102076.19;5055009;28;20028;-59
2023/08/20 04:21:26;;;;;;;7.25;3.75;;;;;;;18.30;90.48;102069.94;5054750;28;20406;-60
2023/08/20 04:23:52;;;;;;;7.05;3.65;;;;;;;18.30;90.36;102063.69;5054960;28;20175;-60
2023/08/20 04:26:18;;;;;;;6.90;3.70;;;;;;;18.31;90.04;102070.81;5055077;28;20033;-59
2023/08/20 04:28:43;;;;;;;8.43;3.75;;;;;;;18.27;89.90;102073.50;5053259;28;20475;-59
2023/08/20 04:31:08;;;;;;;14.73;3.90;;;;;;;18.22;89.97;102069.06;5054265;28;20028;-59
2023/08/20 04:33:34;;;;;;;9.05;3.67;;;;;;;18.09;90.66;102076.19;5054383;28;20033;-60
2023/08/20 04:35:59;;;;;;;9.13;3.58;;;;;;;18.01;90.51;102080.66;5053911;28;20025;-59
2023/08/20 04:38:24;;;;;;;8.85;3.90;;;;;;;17.94;91.60;102077.09;5054211;28;20502;-60
2023/08/20 04:40:50;;;;;;;6.70;4.05;;;;;;;17.85;91.59;102071.72;5053919;28;20108;-59
2023/08/20 04:43:15;;;;;;;10.60;4.10;;;;;;;17.77;91.77;102079.78;5054046;28;20033;-60
2023/08/20 04:45:42;;;;;;;6.35;4.40;;;;;;;17.76;92.59;102079.75;5054097;28;20033;-60
2023/08/20 04:48:07;;;;;;;6.93;3.92;;;;;;;17.87;91.95;102078.00;5054048;28;20037;-60
2023/08/20 04:50:33;;;;;;;9.32;4.22;;;;;;;17.91;91.88;102085.13;5053844;28;20102;-60
2023/08/20 04:52:59;;;;;;;8.95;4.05;;;;;;;18.00;92.37;102071.75;5053856;28;20389;-60
2023/08/20 04:55:26;;;;;;;6.88;3.70;;;;;;;17.97;91.25;102071.75;5053704;28;20033;-59
2023/08/20 04:57:51;;;;;;;6.68;3.22;;;;;;;18.11;90.85;102076.19;5053563;28;20471;-60
2023/08/20 05:00:17;;;;;;;4.22;3.22;;;;;;;18.13;90.44;102071.75;5052546;28;20052;-60
2023/08/20 05:02:42;;;;;;;6.57;3.85;;;;;;;18.09;90.05;102084.22;5053718;28;20474;-59
2023/08/20 05:05:08;;;;;;;11.50;4.50;;;;;;;18.06;90.22;102077.97;5053817;28;20479;-59
2023/08/20 05:07:33;;;;;;;9.68;4.50;;;;;;;18.08;90.17;102079.78;5035532;28;20510;-59
2023/08/20 05:09:59;;;;;;;7.68;4.60;;;;;;;18.03;91.58;102076.22;5053319;28;20036;-60
2023/08/20 05:12:24;;;;;;;10.95;4.90;;;;;;;18.06;91.91;102076.19;5053476;28;20037;-59
2023/08/20 05:14:49;;;;;;;9.32;4.60;;;;;;;18.00;91.59;102082.44;5053263;28;20404;-59
2023/08/20 05:17:15;;;;;;;6.85;4.88;;;;;;;18.02;91.47;102086.00;5053391;28;20029;-59
2023/08/20 05:19:40;;;;;;;11.60;5.25;;;;;;;18.11;91.90;102092.25;5053326;28;20435;-60
2023/08/20 05:22:06;;;;;;;9.85;4.72;;;;;;;18.19;91.79;102088.66;5052840;28;20061;-59
2023/08/20 05:24:31;;;;;;;7.65;5.30;;;;;;;18.24;91.46;102086.91;5053192;28;20482;-60
2023/08/20 05:27:06;;;;;;;10.00;5.57;;;;;;;18.30;91.72;102096.69;5051989;28;20121;-60
2023/08/20 05:29:31;;;;;;;8.13;5.70;;;;;;;18.47;91.50;102100.25;5053161;28;20063;-60
2023/08/20 05:31:57;;;;;;;10.77;5.75;;;;;;;18.58;90.96;102105.56;5053365;28;20052;-59
2023/08/20 05:34:22;;;;;;;13.95;6.28;;;;;;;18.68;91.71;102110.00;5052829;28;20402;-60
2023/08/20 05:36:47;;;;;;;12.60;6.50;;;;;;;18.81;91.43;102100.19;5053120;28;20060;-60
2023/08/20 05:39:13;;;;;;;14.38;6.20;;;;;;;18.94;91.25;102109.97;5052699;28;20047;-60
2023/08/20 05:41:38;;;;;;;16.95;5.90;;;;;;;19.06;91.03;102098.31;5035117;28;20029;-60
2023/08/20 05:44:04;;;;;;;12.55;6.10;;;;;;;19.15;90.75;102098.28;5052971;28;20036;-60
2023/08/20 05:46:29;;;;;;;13.88;6.32;;;;;;;19.32;89.99;102103.53;5052738;28;20041;-59
2023/08/20 05:48:55;;;;;;;13.95;5.95;;;;;;;19.48;89.16;102104.31;5052744;28;20120;-60
2023/08/20 05:51:20;;;;;;;18.80;6.63;;;;;;;19.63;88.85;102101.59;5052789;28;20060;-60
2023/08/20 05:53:45;;;;;;;15.48;7.10;;;;;;;19.76;88.77;102105.97;5052805;28;20025;-60
2023/08/20 05:56:11;;;;;;;13.98;6.50;;;;;;;19.94;88.18;102110.31;5052631;28;20064;-59
2023/08/20 05:58:36;;;;;;;18.00;6.82;;;;;;;20.09;88.06;102112.00;5052767;28;20564;-60
2023/08/20 06:01:01;;;;;;;18.52;6.32;;;;;;;20.31;86.80;102111.78;5052444;28;20075;-60
2023/08/20 06:03:27;;;;;;;10.65;5.93;;;;;;;20.47;86.56;102103.56;5035033;28;20060;-60
2023/08/20 06:05:52;;;;;;;15.30;5.80;;;;;;;20.65;85.60;102107.00;5051669;28;20025;-60
2023/08/20 06:08:18;;;;;;;13.23;5.45;;;;;;;20.71;85.79;102102.44;5052644;28;20133;-60
2023/08/20 06:10:43;;;;;;;12.05;5.57;;;;;;;20.81;85.32;102105.00;5052377;28;20390;-59
2023/08/20 06:13:09;;;;;;;9.35;5.38;;;;;;;20.89;85.52;102105.81;5052654;28;20087;-60
2023/08/20 06:15:34;;;;;;;12.50;5.43;;;;;;;21.10;83.50;102110.03;5052468;28;20032;-59
2023/08/20 06:18:00;;;;;;;15.93;6.22;;;;;;;21.32;83.74;102098.13;5052407;28;20066;-60
2023/08/20 06:20:25;;;;;;;20.60;6.13;;;;;;;21.44;81.12;102095.25;5052504;28;20032;-60
2023/08/20 06:22:50;;;;;;;15.25;5.80;;;;;;;21.56;79.74;102102.28;5052148;28;20380;-60
2023/08/20 06:25:16;;;;;;;16.67;5.63;;;;;;;21.70;78.93;102105.63;5052359;28;20108;-59
2023/08/20 06:27:41;;;;;;;11.13;4.88;;;;;;;21.78;77.45;102105.53;5052134;28;20470;-60
2023/08/20 06:30:07;;;;;;;12.57;4.72;;;;;;;21.89;77.12;102116.13;5052486;28;20072;-59
2023/08/20 06:32:33;;;;;;;12.70;4.82;;;;;;;22.00;76.90;102109.63;5052444;28;20036;-60
2023/08/20 06:34:59;;;;;;;11.13;4.85;;;;;;;22.11;76.12;102114.84;5052152;28;20033;-60
2023/08/20 06:37:24;;;;;;;12.65;5.13;;;;;;;22.22;76.18;102114.69;5052500;28;20083;-60
2023/08/20 06:39:50;;;;;;;11.88;5.00;;;;;;;22.47;75.62;102115.16;5052098;28;20375;-60
2023/08/20 06:42:15;;;;;;;12.85;5.15;;;;;;;22.57;73.84;102116.78;5052696;28;20044;-60
2023/08/20 06:44:41;;;;;;;12.57;4.88;;;;;;;22.67;74.42;102112.09;5052128;28;20367;-60
2023/08/20 06:47:06;;;;;;;16.95;5.50;;;;;;;22.70;73.31;102109.34;5052251;28;20106;-60
2023/08/20 06:49:31;;;;;;;12.70;4.90;;;;;;;22.93;73.46;102109.78;5052334;28;20033;-59
2023/08/20 06:51:57;;;;;;;14.95;4.90;;;;;;;23.02;71.03;102116.78;5052324;28;20118;-60
2023/08/20 06:54:22;;;;;;;13.75;5.15;;;;;;;23.11;71.23;102121.09;5052136;28;20090;-59
2023/08/20 06:56:48;;;;;;;12.18;5.10;;;;;;;23.30;70.99;102117.13;5052193;28;20471;-60
2023/08/20 06:59:13;;;;;;;14.57;5.80;;;;;;;23.45;69.66;102114.06;5051989;28;20444;-60
2023/08/20 07:01:39;;;;;;;17.70;5.82;;;;;;;23.63;69.71;102104.63;5051953;28;20036;-60
2023/08/20 07:04:04;;;;;;;12.30;5.10;;;;;;;23.78;69.00;102119.63;5052097;28;20021;-60
2023/08/20 07:06:30;;;;;;;14.65;5.43;;;;;;;23.91;68.08;102117.53;5051694;28;20056;-61
2023/08/20 07:08:55;;;;;;;15.45;5.05;;;;;;;23.99;66.41;102121.81;5051964;28;20482;-60
2023/08/20 07:11:21;;;;;;;14.35;5.18;;;;;;;24.13;66.05;102116.06;5051875;28;20506;-60
2023/08/20 07:13:46;;;;;;;16.38;5.38;;;;;;;24.41;65.77;102113.56;5034260;28;20071;-60
2023/08/20 07:16:12;;;;;;;12.00;4.43;;;;;;;24.59;64.18;102127.50;5052519;28;20066;-60
2023/08/20 07:18:37;;;;;;;13.00;4.40;;;;;;;24.82;62.58;102126.84;5055898;28;20033;-60
2023/08/20 07:21:02;;;;;;;9.13;4.15;;;;;;;24.93;62.53;102122.03;5055617;28;20033;-59
2023/08/20 07:23:28;;;;;;;12.85;3.97;;;;;;;25.02;61.76;102123.59;5055551;28;20080;-60
2023/08/20 07:26:04;;;;;;;12.15;3.97;;;;;;;25.16;62.16;102124.97;5055520;28;20025;-60
2023/08/20 07:28:56;;;;;;;13.60;4.10;;;;;;;25.35;60.29;102122.63;5055399;28;20055;-61
2023/08/20 07:31:15;;;;;;;11.52;3.75;;;;;;;25.45;59.26;102123.22;5055364;28;20052;-60
2023/08/20 07:33:40;;;;;;;9.20;4.18;;;;;;;25.51;59.09;102128.44;5055335;28;20025;-61
2023/08/20 07:36:06;;;;;;;12.43;4.30;;;;;;;25.57;59.04;102124.66;5055156;28;20364;-60
2023/08/20 07:38:31;;;;;;;9.85;3.65;;;;;;;25.74;58.24;102119.59;5055377;28;20036;-60
2023/08/20 07:40:57;;;;;;;9.55;3.28;;;;;;;26.03;58.02;102123.19;5055486;28;20029;-60
2023/08/20 07:43:24;;;;;;;8.40;3.30;;;;;;;26.22;57.93;102127.94;5055249;28;20079;-60
2023/08/20 07:45:49;;;;;;;12.25;3.60;;;;;;;26.36;56.41;102123.84;5055344;28;20479;-60
2023/08/20 07:48:15;;;;;;;8.82;3.60;;;;;;;26.42;56.47;102124.53;5055335;28;20069;-60
2023/08/20 07:50:40;;;;;;;11.57;4.07;;;;;;;26.48;55.08;102134.31;5055435;28;20056;-60
2023/08/20 07:53:06;;;;;;;10.43;3.72;;;;;;;26.48;55.36;102128.88;5055052;28;20090;-61
2023/08/20 07:55:31;;;;;;;10.70;4.07;;;;;;;26.76;55.00;102141.44;5054964;28;20025;-60
2023/08/20 07:57:56;;;;;;;9.40;3.50;;;;;;;26.97;54.57;102146.06;5055337;28;20084;-60
2023/08/20 08:00:22;;;;;;;10.43;3.63;;;;;;;26.96;53.19;102136.19;5054977;28;20029;-60
2023/08/20 08:02:47;;;;;;;8.55;3.55;;;;;;;27.21;53.26;102145.19;5055141;28;20234;-61
2023/08/20 08:05:14;;;;;;;9.10;3.28;;;;;;;27.35;53.77;102143.78;5054613;28;20491;-60
2023/08/20 08:07:39;;;;;;;8.98;3.28;;;;;;;27.49;52.92;102149.53;5054983;28;20044;-60
2023/08/20 08:10:05;;;;;;;8.68;3.30;;;;;;;27.64;51.50;102146.22;5054748;28;20029;-60
2023/08/20 08:12:31;;;;;;;8.85;3.42;;;;;;;27.80;51.73;102142.94;5055114;28;20032;-61
2023/08/20 08:14:56;;;;;;;8.55;3.10;;;;;;;27.98;50.82;102144.88;5054648;28;20029;-61
2023/08/20 08:17:22;;;;;;;8.40;3.00;;;;;;;28.01;49.81;102147.50;5054839;28;20033;-60
2023/08/20 08:19:47;;;;;;;7.47;3.10;;;;;;;28.00;50.59;102150.25;5054429;28;20355;-60
2023/08/20 08:22:12;;;;;;;9.15;2.90;;;;;;;28.25;49.08;102147.38;5054556;28;20103;-59
2023/08/20 08:24:38;;;;;;;12.00;3.28;;;;;;;28.40;48.09;102154.94;5055090;28;20383;-59
2023/08/20 08:27:03;;;;;;;7.95;3.20;;;;;;;28.47;48.33;102160.97;5054771;28;20427;-61
2023/08/20 08:29:29;;;;;;;7.30;2.92;;;;;;;28.64;47.97;102155.69;5054022;28;20446;-61
2023/08/20 08:31:54;;;;;;;11.07;3.22;;;;;;;28.57;47.19;102155.09;5054476;28;20087;-60
2023/08/20 08:34:21;;;;;;;10.32;2.85;;;;;;;28.51;48.85;102163.50;5054556;28;20378;-61
2023/08/20 08:36:46;;;;;;;8.02;3.20;;;;;;;28.63;47.52;102154.81;5054238;28;20028;-61
2023/08/20 08:39:12;;;;;;;6.00;3.10;;;;;;;28.73;47.21;102148.94;5054569;28;20032;-60
2023/08/20 08:41:39;;;;;;;8.13;2.97;;;;;;;28.77;47.56;102156.03;5054427;28;20029;-60
2023/08/20 08:44:08;;;;;;;6.18;2.58;;;;;;;28.77;46.89;102156.91;5054488;28;20029;-60
2023/08/20 08:46:35;;;;;;;7.68;2.65;;;;;;;28.84;45.87;102157.53;5054556;28;20112;-60
2023/08/20 08:49:01;;;;;;;7.80;2.63;;;;;;;28.65;46.42;102161.06;5054080;28;20474;-60
2023/08/20 08:51:28;;;;;;;6.47;2.50;;;;;;;29.04;44.47;102156.66;5054186;28;20029;-61
2023/08/20 08:53:55;;;;;;;5.32;2.80;;;;;;;29.16;45.24;102158.78;5054116;28;20029;-61
2023/08/20 08:56:20;;;;;;;6.00;2.90;;;;;;;29.41;44.61;102155.81;5053929;28;20017;-61
2023/08/20 08:58:46;;;;;;;5.93;2.60;;;;;;;29.59;44.30;102154.97;5053881;28;20029;-60
2023/08/20 09:01:11;;;;;;;5.68;2.47;;;;;;;29.81;42.21;102156.66;5054170;28;20044;-60
2023/08/20 09:03:36;;;;;;;4.97;2.50;;;;;;;29.78;42.00;102154.06;5053715;28;20087;-61
2023/08/20 09:06:08;;;;;;;5.28;2.35;;;;;;;29.78;42.98;102163.13;5053774;28;20025;-61
2023/08/20 09:08:33;;;;;;;;;;;;;;;30.15;46.29;102162.22;5054360;28;20033;-60
2023/08/20 09:11:01;;;;;;;5.82;2.70;;;;;;;30.36;41.06;102160.25;5053988;28;19909;-61
2023/08/20 09:13:34;;;;;;;6.32;2.78;;;;;;;30.58;41.26;102159.13;5053781;28;20033;-61
2023/08/20 09:15:59;;;;;;;6.55;2.45;;;;;;;30.92;40.76;102163.66;5053641;28;20031;-61
2023/08/20 09:18:25;;;;;;;4.90;2.47;;;;;;;31.02;38.79;102164.94;5035811;28;20033;-61
2023/08/20 09:20:50;;;;;;;6.53;2.75;;;;;;;30.64;40.16;102162.41;5053564;28;20032;-61
2023/08/20 09:23:16;;;;;;;5.80;2.80;;;;;;;30.85;40.63;102163.13;5053519;28;20368;-60
2023/08/20 09:25:43;;;;;;;7.38;2.63;;;;;;;31.01;39.16;102167.78;5053468;28;20079;-60
2023/08/20 09:28:12;;;;;;;7.07;2.70;;;;;;;30.92;39.44;102170.03;5053942;28;20021;-60
2023/08/20 09:30:41;;;;;;;6.22;2.70;;;;;;;30.83;37.62;102155.97;5053792;28;20029;-60
2023/08/20 09:33:15;;;;;;;6.75;2.83;;;;;;;31.22;39.63;102165.69;5053760;28;20033;-61
2023/08/20 09:35:49;;;;;;;6.15;2.63;;;;;;;31.38;39.12;102163.91;5053183;28;20531;-60
2023/08/20 09:38:19;;;;;;;7.35;2.67;;;;;;;31.53;37.32;102167.66;5053641;28;20437;-61
2023/08/20 09:40:45;;;;;;;5.45;2.60;;;;;;;31.44;35.49;102165.44;5052325;28;20368;-61
2023/08/20 09:43:14;;;;;;;5.60;2.55;;;;;;;31.16;36.14;102162.34;5053365;28;20036;-61
2023/08/20 09:45:41;;;;;;;6.38;2.53;;;;;;;31.42;36.80;102163.66;5053356;28;20052;-61
2023/08/20 09:48:09;;;;;;;6.78;2.42;;;;;;;31.59;36.84;102165.44;5053272;28;20089;-60
2023/08/20 09:50:36;;;;;;;5.93;2.28;;;;;;;31.59;35.57;102170.03;5053199;28;20062;-61
2023/08/20 09:53:15;;;;;;;5.07;2.10;;;;;;;31.47;36.91;102163.38;5053192;28;20032;-60
2023/08/20 09:55:42;;;;;;;6.55;2.35;;;;;;;31.92;35.60;102161.78;5053168;28;20416;-61
2023/08/20 09:58:08;;;;;;;5.53;2.40;;;;;;;32.17;35.95;102167.56;5053343;28;20075;-61
2023/08/20 10:00:35;;;;;;;5.40;2.60;;;;;;;31.97;36.21;102167.84;5052954;28;20028;-60
2023/08/20 10:03:01;;;;;;;6.63;2.65;;;;;;;31.85;35.38;102163.09;5053020;28;20063;-61
2023/08/20 10:05:26;;;;;;;4.38;2.00;;;;;;;32.08;35.63;102159.91;5051745;28;20025;-60
2023/08/20 10:07:54;;;;;;;4.28;1.70;;;;;;;32.34;33.55;102162.94;5053168;28;20025;-61
2023/08/20 10:10:19;;;;;;;4.78;1.67;;;;;;;32.49;31.11;102169.34;5052842;28;20024;-62
2023/08/20 10:12:45;;;;;;;6.25;1.80;;;;;;;32.56;32.62;102166.16;5052849;28;20040;-61
2023/08/20 10:15:13;;;;;;;4.85;1.90;;;;;;;32.81;32.57;102153.72;5052935;28;20021;-61
2023/08/20 10:17:42;;;;;;;3.97;1.60;;;;;;;32.55;31.89;102152.56;5052799;28;20064;-60
2023/08/20 10:20:08;;;;;;;5.63;1.83;;;;;;;32.75;32.34;102162.28;5052832;28;20509;-61
2023/08/20 10:22:40;;;;;;;3.67;1.85;;;;;;;32.78;32.65;102162.09;5052371;28;20049;-62
2023/08/20 10:25:07;;;;;;;7.35;1.95;;;;;;;32.12;33.52;102160.56;5051451;28;20082;-61
2023/08/20 10:27:35;;;;;;;5.70;1.80;;;;;;;32.21;32.54;102164.66;5052427;28;20107;-61
2023/08/20 10:30:07;;;;;;;2.97;1.52;;;;;;;32.35;32.90;102162.84;5052507;28;20029;-61
2023/08/20 10:33:05;;;;;;;4.75;1.60;;;;;;;32.92;33.00;102156.66;5035808;28;20071;-61
2023/08/20 10:35:40;;;;;;;2.55;1.48;;;;;;;33.11;31.37;102153.66;5051901;28;20399;-61
2023/08/20 10:38:19;;;;;;;3.40;1.33;;;;;;;33.09;32.21;102150.13;5052432;28;20032;-60
2023/08/20 10:40:49;;;;;;;3.40;1.45;;;;;;;33.27;30.33;102153.53;5052764;28;20059;-60
2023/08/20 10:43:30;;;;;;;2.90;1.42;;;;;;;33.68;29.88;102153.63;5034592;28;20026;-62
2023/08/20 10:46:17;;;;;;;2.55;1.35;;;;;;;33.84;30.42;102162.59;5052665;28;20115;-61
2023/08/20 10:49:06;;;;;;;3.72;1.50;;;;;;;33.69;29.69;102152.63;5052668;28;20033;-61
2023/08/20 10:51:39;;;;;;;2.70;1.33;;;;;;;34.06;29.62;102156.56;5053349;28;20094;-60
2023/08/20 10:54:07;;;;;;;3.63;1.38;;;;;;;34.32;28.71;102163.03;5056393;28;20055;-61
2023/08/20 10:56:55;;;;;;;4.15;1.40;;;;;;;34.48;30.23;102151.91;5038320;28;20028;-60
2023/08/20 10:59:27;;;;;;;3.70;1.52;;;;;;;34.46;27.35;102163.94;5055930;28;20044;-61
2023/08/20 11:01:55;;;;;;;2.83;1.40;;;;;;;34.07;27.17;102154.72;5055336;28;20025;-61
2023/08/20 11:04:23;;;;;;;6.35;1.92;;;;;;;34.12;29.18;102158.00;5056252;28;20021;-60
2023/08/20 11:06:56;;;;;;;2.50;1.30;;;;;;;34.27;28.88;102154.22;5055980;28;20044;-61
2023/08/20 11:09:27;;;;;;;4.03;1.58;;;;;;;34.30;29.04;102155.88;5056256;28;20024;-60
2023/08/20 11:11:52;;;;;;;4.20;1.60;;;;;;;34.42;26.52;102151.41;5056153;28;20502;-61
2023/08/20 11:14:20;;;;;;;3.28;1.58;;;;;;;34.52;26.18;102153.44;5055906;28;20033;-62
2023/08/20 11:16:46;;;;;;;5.13;1.60;;;;;;;34.41;26.77;102147.78;5055271;28;20508;-61
2023/08/20 11:19:13;;;;;;;3.55;1.67;;;;;;;34.21;28.51;102157.38;5055947;28;20305;-61